| time (UTC) | temp C | wind direction | speed KPH | gust KPH | rain 1hr cm | rain 24hr cm | rain mn cm | humidity % | barometer mb |
| 20260507050057 | 9 | 0 | 0.0 | 1.6 | 0.00 | 0.43 | 0.00 | 91 | 1006.2 |
| 20260507044555 | 9 | 0 | 0.0 | 3.2 | 0.00 | 0.43 | 0.00 | 91 | 1005.9 |
| 20260507043051 | 9 | 0 | 0.0 | 3.2 | 0.00 | 0.43 | 0.00 | 91 | 1006.0 |
| 20260507041553 | 10 | 109 | 0.0 | 3.2 | 0.00 | 0.43 | 0.00 | 91 | 1006.2 |
| 20260507040058 | 10 | 127 | 0.0 | 1.6 | 0.00 | 0.43 | 0.00 | 91 | 1006.0 |
| 20260507034553 | 11 | 0 | 0.0 | 3.2 | 0.05 | 0.43 | 0.43 | 92 | 1005.8 |
| 20260507033054 | 11 | 0 | 0.0 | 1.6 | 0.05 | 0.43 | 0.43 | 92 | 1005.6 |
| 20260507031556 | 12 | 102 | 0.0 | 1.6 | 0.05 | 0.43 | 0.43 | 92 | 1005.4 |
| 20260507030055 | 12 | 0 | 0.0 | 4.8 | 0.05 | 0.43 | 0.43 | 92 | 1005.1 |
| 20260507024606 | 13 | 135 | 1.6 | 6.4 | 0.00 | 0.38 | 0.38 | 92 | 1005.5 |
| 20260507023051 | 13 | 84 | 0.0 | 3.2 | 0.00 | 0.38 | 0.38 | 93 | 1005.0 |
| 20260507021556 | 13 | 0 | 0.0 | 3.2 | 0.00 | 0.38 | 0.38 | 93 | 1004.7 |
| 20260507020108 | 14 | 0 | 0.0 | 0.0 | 0.00 | 0.38 | 0.38 | 94 | 1004.6 |
| 20260507014603 | 14 | 0 | 0.0 | 0.0 | 0.00 | 0.38 | 0.38 | 94 | 1004.5 |
| 20260507013055 | 14 | 0 | 0.0 | 0.0 | 0.00 | 0.38 | 0.38 | 94 | 1004.4 |
| 20260507011555 | 14 | 0 | 0.0 | 0.0 | 0.00 | 0.38 | 0.38 | 93 | 1004.4 |
| 20260507010049 | 14 | 0 | 0.0 | 0.0 | 0.00 | 0.38 | 0.38 | 93 | 1004.4 |
| 20260507004552 | 14 | 0 | 0.0 | 0.0 | 0.00 | 0.38 | 0.38 | 93 | 1004.4 |
| 20260507003055 | 14 | 0 | 0.0 | 1.6 | 0.00 | 0.38 | 0.38 | 93 | 1004.1 |
| 20260507001548 | 14 | 0 | 0.0 | 3.2 | 0.00 | 0.38 | 0.38 | 93 | 1004.1 |
| 20260507000054 | 14 | 0 | 0.0 | 1.6 | 0.00 | 0.38 | 0.38 | 93 | 1004.0 |
| 20260506234602 | 14 | 0 | 0.0 | 1.6 | 0.00 | 0.38 | 0.38 | 93 | 1003.9 |
| 20260506233059 | 14 | 0 | 0.0 | 1.6 | 0.00 | 0.38 | 0.38 | 93 | 1003.9 |
| 20260506231558 | 14 | 0 | 0.0 | 3.2 | 0.00 | 0.38 | 0.38 | 93 | 1003.9 |
| 20260506230100 | 14 | 0 | 0.0 | 3.2 | 0.00 | 0.38 | 0.38 | 93 | 1003.9 |
| 20260506224551 | 14 | 0 | 0.0 | 1.6 | 0.00 | 0.38 | 0.38 | 93 | 1004.0 |
| 20260506223058 | 15 | 0 | 0.0 | 1.6 | 0.03 | 0.38 | 0.38 | 93 | 1004.0 |
| 20260506221553 | 15 | 0 | 0.0 | 1.6 | 0.03 | 0.38 | 0.38 | 93 | 1004.1 |
| 20260506220056 | 15 | 0 | 0.0 | 1.6 | 0.05 | 0.38 | 0.38 | 93 | 1004.2 |
| 20260506214551 | 15 | 0 | 0.0 | 1.6 | 0.08 | 0.38 | 0.38 | 92 | 1004.2 |
| 20260506213103 | 15 | 0 | 0.0 | 9.7 | 0.08 | 0.36 | 0.36 | 92 | 1004.2 |
| 20260506211604 | 15 | 28 | 0.0 | 6.4 | 0.08 | 0.36 | 0.36 | 92 | 1004.2 |
| 20260506210055 | 15 | 0 | 0.0 | 3.2 | 0.08 | 0.33 | 0.33 | 92 | 1004.3 |
| 20260506204559 | 15 | 0 | 0.0 | 1.6 | 0.08 | 0.30 | 0.30 | 92 | 1004.6 |
| 20260506203053 | 15 | 91 | 0.0 | 4.8 | 0.05 | 0.28 | 0.28 | 92 | 1004.6 |
| 20260506201600 | 16 | 39 | 0.0 | 1.6 | 0.08 | 0.28 | 0.28 | 92 | 1004.7 |
| 20260506200050 | 16 | 230 | 0.0 | 3.2 | 0.05 | 0.25 | 0.25 | 92 | 1004.6 |
| 20260506194604 | 16 | 0 | 0.0 | 1.6 | 0.03 | 0.23 | 0.23 | 92 | 1005.1 |
| 20260506193053 | 16 | 0 | 0.0 | 1.6 | 0.05 | 0.23 | 0.23 | 92 | 1005.0 |
| 20260506191553 | 16 | 0 | 0.0 | 0.0 | 0.08 | 0.20 | 0.20 | 91 | 1004.7 |
| 20260506190054 | 16 | 88 | 0.0 | 1.6 | 0.15 | 0.20 | 0.20 | 91 | 1004.9 |
| 20260506184604 | 16 | 0 | 0.0 | 0.0 | 0.20 | 0.20 | 0.20 | 91 | 1005.2 |
| 20260506183100 | 16 | 0 | 0.0 | 1.6 | 0.18 | 0.18 | 0.18 | 90 | 1005.6 |
| 20260506181554 | 16 | 0 | 0.0 | 1.6 | 0.13 | 0.13 | 0.13 | 89 | 1005.7 |
| 20260506180053 | 17 | 0 | 0.0 | 1.6 | 0.05 | 0.05 | 0.05 | 86 | 1006.0 |
| 20260506174551 | 18 | 0 | 0.0 | 3.2 | 0.00 | 0.00 | 0.00 | 80 | 1006.1 |
| 20260506173053 | 19 | 159 | 0.0 | 6.4 | 0.00 | 0.00 | 0.00 | 73 | 1005.9 |
| 20260506171553 | 20 | 0 | 1.6 | 11.3 | 0.00 | 0.00 | 0.00 | 66 | 1005.8 |
| 20260506170109 | 20 | 0 | 0.0 | 4.8 | 0.00 | 0.00 | 0.00 | 68 | 1005.8 |
| 20260506164549 | 20 | 0 | 0.0 | 4.8 | 0.00 | 0.00 | 0.00 | 70 | 1005.9 |
| 20260506163106 | 20 | 0 | 0.0 | 3.2 | 0.00 | 0.00 | 0.00 | 70 | 1006.0 |
| 20260506161553 | 20 | 27 | 0.0 | 6.4 | 0.00 | 0.00 | 0.00 | 68 | 1006.2 |
| 20260506160052 | 20 | 0 | 0.0 | 3.2 | 0.00 | 0.00 | 0.00 | 70 | 1006.4 |
| 20260506154555 | 20 | 84 | 0.0 | 4.8 | 0.00 | 0.00 | 0.00 | 70 | 1006.9 |
| 20260506153050 | 20 | 53 | 0.0 | 3.2 | 0.00 | 0.00 | 0.00 | 70 | 1007.2 |
| 20260506151551 | 20 | 0 | 0.0 | 6.4 | 0.00 | 0.00 | 0.00 | 70 | 1007.4 |
| 20260506150050 | 20 | 0 | 0.0 | 6.4 | 0.00 | 0.00 | 0.00 | 72 | 1007.5 |
| 20260506144606 | 20 | 0 | 1.6 | 9.7 | 0.00 | 0.00 | 0.00 | 70 | 1007.4 |
| 20260506143103 | 20 | 0 | 0.0 | 6.4 | 0.00 | 0.00 | 0.00 | 71 | 1007.3 |
| 20260506141550 | 18 | 94 | 0.0 | 4.8 | 0.00 | 0.00 | 0.00 | 74 | 1007.2 |
| 20260506140049 | 18 | 80 | 0.0 | 1.6 | 0.00 | 0.00 | 0.00 | 77 | 1007.1 |
| 20260506134552 | 17 | 87 | 0.0 | 3.2 | 0.00 | 0.00 | 0.00 | 77 | 1007.2 |
| 20260506133054 | 17 | 88 | 0.0 | 4.8 | 0.00 | 0.00 | 0.00 | 79 | 1007.5 |
| 20260506131552 | 17 | 0 | 0.0 | 1.6 | 0.00 | 0.00 | 0.00 | 80 | 1007.7 |
| 20260506130057 | 17 | 0 | 0.0 | 0.0 | 0.00 | 0.00 | 0.00 | 80 | 1007.6 |
| 20260506124556 | 16 | 0 | 0.0 | 1.6 | 0.00 | 0.00 | 0.00 | 80 | 1007.7 |
| 20260506123052 | 16 | 329 | 0.0 | 1.6 | 0.00 | 0.00 | 0.00 | 81 | 1007.6 |
| 20260506121557 | 15 | 0 | 0.0 | 1.6 | 0.00 | 0.00 | 0.00 | 82 | 1007.6 |
| 20260506120056 | 15 | 0 | 0.0 | 3.2 | 0.00 | 0.00 | 0.00 | 82 | 1007.9 |
| 20260506114552 | 15 | 0 | 0.0 | 1.6 | 0.00 | 0.00 | 0.00 | 84 | 1007.9 |
| 20260506113054 | 15 | 0 | 0.0 | 4.8 | 0.00 | 0.00 | 0.00 | 84 | 1008.1 |
| 20260506111551 | 14 | 0 | 0.0 | 3.2 | 0.00 | 0.00 | 0.00 | 84 | 1008.2 |
| 20260506110053 | 14 | 0 | 0.0 | 1.6 | 0.00 | 0.00 | 0.00 | 85 | 1008.1 |
| 20260506104553 | 13 | 0 | 0.0 | 1.6 | 0.00 | 0.00 | 0.00 | 86 | 1008.0 |
| 20260506103058 | 13 | 0 | 0.0 | 1.6 | 0.00 | 0.00 | 0.00 | 85 | 1008.1 |
| 20260506101551 | 13 | 0 | 0.0 | 0.0 | 0.00 | 0.00 | 0.00 | 85 | 1007.9 |
| 20260506100052 | 13 | 0 | 0.0 | 1.6 | 0.00 | 0.00 | 0.00 | 86 | 1008.0 |
| 20260506094601 | 13 | 0 | 0.0 | 0.0 | 0.00 | 0.00 | 0.00 | 85 | 1007.9 |
| 20260506093052 | 13 | 0 | 0.0 | 1.6 | 0.00 | 0.00 | 0.00 | 84 | 1007.9 |
| 20260506091550 | 13 | 0 | 0.0 | 0.0 | 0.00 | 0.00 | 0.00 | 83 | 1007.9 |
| 20260506090056 | 13 | 0 | 0.0 | 0.0 | 0.00 | 0.00 | 0.00 | 83 | 1007.8 |
| 20260506084612 | 13 | 0 | 0.0 | 1.6 | 0.00 | 0.00 | 0.00 | 83 | 1008.0 |
| 20260506083052 | 12 | 0 | 0.0 | 0.0 | 0.00 | 0.00 | 0.00 | 84 | 1008.0 |
| 20260506081551 | 13 | 0 | 0.0 | 0.0 | 0.00 | 0.00 | 0.00 | 83 | 1008.0 |
| 20260506073059 | 13 | 0 | 0.0 | 0.0 | 0.00 | 0.00 | 0.00 | 79 | 1007.9 |
| 20260506071553 | 14 | 0 | 0.0 | 0.0 | 0.00 | 0.00 | 0.00 | 78 | 1007.7 |
| 20260506061601 | 15 | 0 | 0.0 | 0.0 | 0.00 | 0.00 | 0.00 | 74 | 1007.6 |